Time;durP1;ratioP1;P1;durP2;ratioP2;P2;SDS_P1;SDS_P2;PMS_P1;PMS_P2;Temp;Humidity;BMP_temperature;BMP_pressure;BME280_temperature;BME280_humidity;BME280_pressure;Samples;Min_cycle;Max_cycle;Signal;HPM_P1;HPM_P2
2022/03/22 00:02:03;;;;;;;36.70;22.80;;;;;;;;;;5090529;28;20063;-62
2022/03/22 00:04:30;;;;;;;45.95;27.30;;;;;;;;;;5085011;28;20064;-62
2022/03/22 00:06:56;;;;;;;43.20;26.30;;;;;;;;;;5089814;28;20048;-62
2022/03/22 00:09:22;;;;;;;46.33;26.90;;;;;;;;;;5091380;28;20036;-62
2022/03/22 00:11:50;;;;;;;40.72;26.40;;;;;;;;;;5089531;28;20052;-62
2022/03/22 00:14:16;;;;;;;39.97;26.00;;;;;;;;;;5089874;28;20039;-61
2022/03/22 00:16:42;;;;;;;37.42;25.48;;;;;;;;;;5091464;28;20039;-62
2022/03/22 00:19:09;;;;;;;41.88;25.55;;;;;;;;;;5090364;28;20397;-62
2022/03/22 00:21:37;;;;;;;40.40;25.42;;;;;;;;;;5091140;28;20043;-62
2022/03/22 00:24:04;;;;;;;44.45;26.70;;;;;;;;;;5092100;28;20496;-62
2022/03/22 00:26:30;;;;;;;41.45;25.10;;;;;;;;;;5090278;28;20093;-62
2022/03/22 00:28:57;;;;;;;35.70;23.23;;;;;;;;;;5090759;28;20134;-62
2022/03/22 00:31:23;;;;;;;34.63;23.23;;;;;;;;;;5090731;28;20106;-62
2022/03/22 00:33:49;;;;;;;41.78;25.27;;;;;;;;;;5090357;28;20105;-62
2022/03/22 00:36:15;;;;;;;38.70;24.48;;;;;;;;;;5091214;28;20380;-62
2022/03/22 00:38:41;;;;;;;38.10;25.35;;;;;;;;;;5089405;28;20031;-61
2022/03/22 00:41:07;;;;;;;40.63;24.30;;;;;;;;;;5091490;28;20039;-62
2022/03/22 00:43:36;;;;;;;47.42;25.85;;;;;;;;;;5090939;28;20039;-62
2022/03/22 00:46:03;;;;;;;41.50;25.63;;;;;;;;;;5091321;28;20046;-62
2022/03/22 00:48:29;;;;;;;38.75;25.30;;;;;;;;;;5089853;28;20409;-62
2022/03/22 00:50:56;;;;;;;39.38;25.65;;;;;;;;;;5090426;28;20569;-62
2022/03/22 00:53:22;;;;;;;41.72;26.42;;;;;;;;;;5090497;28;20039;-62
2022/03/22 00:55:48;;;;;;;48.38;27.15;;;7.90;99.90;;;;;;5090191;28;20453;-62
2022/03/22 00:58:14;;;;;;;46.80;27.05;;;;;;;;;;5090200;28;20043;-62
2022/03/22 01:00:41;;;;;;;39.80;25.33;;;;;;;;;;5089989;28;20068;-62
2022/03/22 01:03:09;;;;;;;40.95;26.23;;;;;;;;;;5087975;28;20044;-63
2022/03/22 01:05:36;;;;;;;38.80;25.48;;;7.90;99.90;;;;;;5089528;28;20075;-62
2022/03/22 01:08:06;;;;;;;38.03;25.20;;;;;;;;;;5089368;28;20055;-62
2022/03/22 01:10:34;;;;;;;35.88;24.75;;;;;;;;;;5090388;28;20047;-62
2022/03/22 01:13:00;;;;;;;36.85;24.17;;;;;;;;;;5090439;28;20092;-62
2022/03/22 01:15:32;;;;;;;40.88;24.88;;;;;;;;;;5090434;28;20040;-62
2022/03/22 01:17:59;;;;;;;35.42;23.38;;;;;;;;;;5089622;28;20106;-62
2022/03/22 01:20:26;;;;;;;35.17;22.90;;;;;;;;;;5081631;28;20097;-62
2022/03/22 01:22:53;;;;;;;33.72;22.58;;;8.10;99.90;;;;;;5089981;28;20237;-62
2022/03/22 01:25:25;;;;;;;38.45;23.90;;;;;;;;;;5087791;28;20129;-62
2022/03/22 01:27:51;;;;;;;37.75;23.08;;;;;;;;;;5087842;28;20036;-62
2022/03/22 01:30:21;;;;;;;37.58;23.02;;;;;;;;;;5088487;28;20028;-62
2022/03/22 01:32:48;;;;;;;31.75;20.55;;;;;;;;;;5089531;28;20154;-62
2022/03/22 01:35:14;;;;;;;38.40;22.60;;;;;;;;;;5087901;28;20047;-62
2022/03/22 01:37:40;;;;;;;31.98;21.77;;;;;;;;;;5088502;28;20051;-62
2022/03/22 01:40:08;;;;;;;30.83;20.67;;;7.20;99.90;;;;;;5089918;28;20109;-62
2022/03/22 01:42:35;;;;;;;33.95;22.90;;;;;;;;;;5087698;28;20387;-62
2022/03/22 01:45:02;;;;;;;33.20;21.63;;;;;;;;;;5090455;28;20128;-62
2022/03/22 01:47:28;;;;;;;33.50;20.85;;;;;;;;;;5087756;28;20084;-61
2022/03/22 01:49:54;;;;;;;33.13;21.38;;;;;;;;;;5088038;28;20048;-62
2022/03/22 01:52:23;;;;;;;33.92;20.98;;;;;;;;;;5088109;28;20043;-62
2022/03/22 01:54:50;;;;;;;32.95;22.23;;;;;;;;;;5088464;28;20132;-62
2022/03/22 01:57:17;;;;;;;32.40;22.67;;;;;;;;;;5087981;28;20036;-61
2022/03/22 01:59:43;;;;;;;35.50;22.90;;;;;;;;;;5086078;28;20112;-62
2022/03/22 02:07:40;;;;;;;34.47;21.50;;;;;;;;;;5086777;28;20044;-62
2022/03/22 02:10:06;;;;;;;32.47;22.17;;;;;;;;;;5089282;28;20071;-61
2022/03/22 02:12:32;;;;;;;35.38;21.92;;;;;;;;;;5088620;28;20040;-62
2022/03/22 02:14:58;;;;;;;33.35;21.52;;;;;;;;;;5089292;28;20038;-62
2022/03/22 02:17:24;;;;;;;36.95;21.63;;;;;;;;;;5089708;28;20055;-62
2022/03/22 02:19:51;;;;;;;32.15;21.35;;;;;;;;;;5088636;28;20509;-62
2022/03/22 02:22:18;;;;;;;37.05;21.80;;;;;;;;;;5087302;28;20071;-62
2022/03/22 02:24:45;;;;;;;36.03;22.23;;;;;;;;;;5088027;28;20039;-62
2022/03/22 02:27:11;;;;;;;31.98;21.20;;;;;;;;;;5089298;28;20507;-61
2022/03/22 02:29:37;;;;;;;35.22;23.40;;;;;;;;;;5091680;28;20120;-62
2022/03/22 02:32:04;;;;;;;39.85;24.00;;;;;;;;;;5092737;28;20040;-62
2022/03/22 02:34:30;;;;;;;38.45;25.15;;;;;;;;;;5094174;28;20087;-62
2022/03/22 02:36:57;;;;;;;44.30;25.60;;;;;;;;;;5091159;28;20040;-62
2022/03/22 02:39:23;;;;;;;35.58;23.33;;;;;;;;;;5093899;28;20563;-62
2022/03/22 02:41:51;;;;;;;38.55;23.38;;;;;;;;;;5092043;28;20402;-62
2022/03/22 02:44:18;;;;;;;36.38;22.05;;;;;;;;;;5092958;28;20479;-62
2022/03/22 02:46:44;;;;;;;41.00;23.45;;;;;;;;;;5092208;28;20044;-62
2022/03/22 02:49:11;;;;;;;38.78;23.63;;;;;;;;;;5094236;28;20028;-62
2022/03/22 02:51:37;;;;;;;34.60;23.33;;;;;;;;;;5092481;28;20040;-62
2022/03/22 02:54:03;;;;;;;39.78;24.63;;;;;;;;;;5091430;28;20028;-62
2022/03/22 02:56:30;;;;;;;37.65;25.33;;;;;;;;;;5091673;28;20044;-62
2022/03/22 02:58:56;;;;;;;36.40;25.02;;;;;;;;;;5091770;28;20040;-62
2022/03/22 03:01:22;;;;;;;36.10;23.40;;;;;;;;;;5092325;28;20119;-62
2022/03/22 03:03:48;;;;;;;40.58;26.50;;;;;;;;;;5094133;28;20085;-62
2022/03/22 03:06:15;;;;;;;37.67;24.58;;;;;;;;;;5092657;28;20079;-62
2022/03/22 03:08:42;;;;;;;38.25;24.08;;;;;;;;;;5093156;28;20043;-62
2022/03/22 03:11:08;;;;;;;39.60;23.67;;;;;;;;;;5089193;28;20036;-61
2022/03/22 03:16:19;;;;;;;36.13;23.80;;;;;;;;;;5089513;28;20088;-62
2022/03/22 03:18:45;;;;;;;36.78;23.15;;;;;;;;;;5090055;28;20040;-61
2022/03/22 03:21:11;;;;;;;35.42;22.90;;;;;;;;;;5089326;28;20032;-62
2022/03/22 03:23:38;;;;;;;36.13;22.92;;;;;;;;;;5090964;28;20039;-61
2022/03/22 03:26:04;;;;;;;36.22;22.10;;;;;;;;;;5089761;28;20032;-62
2022/03/22 03:28:30;;;;;;;30.42;20.23;;;;;;;;;;5089974;28;20051;-62
2022/03/22 03:30:56;;;;;;;42.08;22.95;;;;;;;;;;5091724;28;20159;-62
2022/03/22 03:33:22;;;;;;;37.85;23.20;;;;;;;;;;5091297;28;20077;-62
2022/03/22 03:35:48;;;;;;;39.38;23.85;;;;;;;;;;5091553;28;20046;-62
2022/03/22 03:38:14;;;;;;;35.78;23.80;;;;;;;;;;5090646;28;20039;-62
2022/03/22 03:43:25;;;;;;;37.85;24.23;;;;;;;;;;5090890;28;20426;-62
2022/03/22 03:48:36;;;;;;;39.33;25.70;;;;;;;;;;5089287;28;20052;-62
2022/03/22 03:51:02;;;;;;;41.25;25.27;;;;;;;;;;5091751;28;20128;-62
2022/03/22 03:53:28;;;;;;;36.85;24.42;;;;;;;;;;5090275;28;20028;-62
2022/03/22 03:55:54;;;;;;;34.85;23.00;;;;;;;;;;5091710;28;20040;-61
2022/03/22 03:58:20;;;;;;;37.20;24.77;;;;;;;;;;5091809;28;20119;-62
2022/03/22 04:00:46;;;;;;;35.63;22.55;;;;;;;;;;5091090;28;20036;-62
2022/03/22 04:03:12;;;;;;;36.20;23.65;;;;;;;;;;5090520;28;20493;-62
2022/03/22 04:05:38;;;;;;;35.50;23.80;;;;;;;;;;5091714;28;20060;-62
2022/03/22 04:08:04;;;;;;;40.80;25.00;;;;;;;;;;5092064;28;20055;-62
2022/03/22 04:10:34;;;;;;;35.85;23.60;;;;;;;;;;5090501;28;20046;-62
2022/03/22 04:13:00;;;;;;;42.33;24.95;;;;;;;;;;5090161;28;20047;-62
2022/03/22 04:15:27;;;;;;;34.00;22.95;;;;;;;;;;5091175;28;20079;-62
2022/03/22 04:17:54;;;;;;;37.35;24.70;;;;;;;;;;5089022;28;20418;-62
2022/03/22 04:20:21;;;;;;;41.60;23.98;;;;;;;;;;5092489;28;20471;-61
2022/03/22 04:22:47;;;;;;;35.50;21.67;;;;;;;;;;5089700;28;20462;-62
2022/03/22 04:25:14;;;;;;;31.67;21.15;;;;;;;;;;5090341;28;20084;-62
2022/03/22 04:33:09;;;;;;;34.00;23.30;;;;;;;;;;5089832;28;20052;-62
2022/03/22 04:35:36;;;;;;;39.13;23.20;;;;;;;;;;5091486;28;20047;-62
2022/03/22 04:38:03;;;;;;;38.70;23.35;;;;;;;;;;5090803;28;20042;-61
2022/03/22 04:40:29;;;;;;;35.08;22.38;;;;;;;;;;5091217;28;20383;-62
2022/03/22 04:42:55;;;;;;;40.72;25.35;;;;;;;;;;5090737;28;20040;-62
2022/03/22 04:45:22;;;;;;;40.25;24.40;;;;;;;;;;5090630;28;20068;-62
2022/03/22 04:47:49;;;;;;;42.65;26.67;;;;;;;;;;5089475;28;20044;-62
2022/03/22 04:50:16;;;;;;;38.28;24.05;;;;;;;;;;5090382;28;20040;-62
2022/03/22 04:58:11;;;;;;;37.40;24.73;;;;;;;;;;5091772;28;20483;-62
2022/03/22 05:00:37;;;;;;;40.65;24.70;;;;;;;;;;5089574;28;20059;-62
2022/03/22 05:03:05;;;;;;;43.10;25.17;;;;;;;;;;5085601;28;20072;-62
2022/03/22 05:08:16;;;;;;;41.08;24.70;;;;;;;;;;5089310;28;20048;-62
2022/03/22 05:10:42;;;;;;;37.47;24.80;;;;;;;;;;5089781;28;20498;-61
2022/03/22 05:13:09;;;;;;;35.10;23.73;;;;;;;;;;5088301;28;20047;-61
2022/03/22 05:15:35;;;;;;;42.22;25.33;;;;;;;;;;5089151;28;20048;-62
2022/03/22 05:18:01;;;;;;;41.28;26.45;;;;;;;;;;5088759;28;20467;-62
2022/03/22 05:20:28;;;;;;;38.22;24.63;;;;;;;;;;5089200;28;20490;-61
2022/03/22 05:22:54;;;;;;;40.22;23.67;;;;;;;;;;5087113;28;20409;-62
2022/03/22 05:25:20;;;;;;;42.45;25.20;;;;;;;;;;5089918;28;20078;-62
2022/03/22 05:27:46;;;;;;;41.28;24.52;;;;;;;;;;5089971;28;20071;-61
2022/03/22 05:30:13;;;;;;;36.80;23.55;;;;;;;;;;5090845;28;20044;-62
2022/03/22 05:32:40;;;;;;;42.88;24.67;;;;;;;;;;5090762;28;20097;-62
2022/03/22 05:35:06;;;;;;;41.60;25.10;;;;;;;;;;5090300;28;20042;-62
2022/03/22 05:37:32;;;;;;;39.40;25.50;;;;;;;;;;5090769;28;20039;-61
2022/03/22 05:39:58;;;;;;;35.00;23.02;;;;;;;;;;5089947;28;20139;-62
2022/03/22 05:42:25;;;;;;;37.75;23.90;;;;;;;;;;5090646;28;20119;-61
2022/03/22 05:44:51;;;;;;;38.00;23.55;;;;;;;;;;5091129;28;20089;-62
2022/03/22 05:47:18;;;;;;;42.22;24.98;;;;;;;;;;5091076;28;20379;-61
2022/03/22 05:49:44;;;;;;;40.00;26.02;;;;;;;;;;5089546;28;20043;-62
2022/03/22 05:52:10;;;;;;;41.42;26.05;;;;;;;;;;5091109;28;20036;-62
2022/03/22 05:54:36;;;;;;;39.38;25.15;;;;;;;;;;5089462;28;20044;-62
2022/03/22 05:57:02;;;;;;;36.78;24.10;;;;;;;;;;5090978;28;20115;-62
2022/03/22 05:59:28;;;;;;;37.53;23.35;;;;;;;;;;5090643;28;20040;-62
2022/03/22 06:01:54;;;;;;;38.30;25.42;;;;;;;;;;5090982;28;20047;-62
2022/03/22 06:04:20;;;;;;;35.35;21.85;;;;;;;;;;5090759;28;20112;-62
2022/03/22 06:06:47;;;;;;;35.13;22.73;;;;;;;;;;5090527;28;20040;-61
2022/03/22 06:09:14;;;;;;;41.15;24.10;;;;;;;;;;5090553;28;20032;-62
2022/03/22 06:11:41;;;;;;;39.33;25.30;;;;;;;;;;5090390;28;20107;-62
2022/03/22 06:14:07;;;;;;;40.20;24.80;;;;;;;;;;5090956;28;20044;-62
2022/03/22 06:16:34;;;;;;;37.13;24.50;;;;;;;;;;5088863;28;20050;-62
2022/03/22 06:19:00;;;;;;;42.88;25.42;;;;;;;;;;5089208;28;20393;-61
2022/03/22 06:21:27;;;;;;;40.95;25.42;;;;;;;;;;5090180;28;20043;-62
2022/03/22 06:23:53;;;;;;;39.42;26.08;;;;;;;;;;5089596;28;20044;-62
2022/03/22 06:26:20;;;;;;;42.75;25.13;;;;;;;;;;5087383;28;20400;-62
2022/03/22 06:28:46;;;;;;;42.17;26.63;;;;;;;;;;5090471;28;20111;-62
2022/03/22 06:31:12;;;;;;;47.03;26.80;;;;;;;;;;5088842;28;20422;-63
2022/03/22 06:33:38;;;;;;;42.15;25.40;;;;;;;;;;5089583;28;20043;-61
2022/03/22 06:36:08;;;;;;;36.75;24.73;;;;;;;;;;5085544;28;20490;-61
2022/03/22 06:38:34;;;;;;;41.75;25.40;;;;;;;;;;5088254;28;20514;-61
2022/03/22 06:41:01;;;;;;;41.58;25.38;;;;;;;;;;5089894;28;20111;-61
2022/03/22 06:43:27;;;;;;;44.15;26.95;;;;;;;;;;5082503;28;20051;-61
2022/03/22 06:45:53;;;;;;;39.85;25.17;;;;;;;;;;5088893;28;20051;-61
2022/03/22 06:48:19;;;;;;;40.45;24.77;;;;;;;;;;5084778;28;20092;-61
2022/03/22 06:50:48;;;;;;;39.47;24.20;;;;;;;;;;5087434;28;20044;-62
2022/03/22 06:53:14;;;;;;;42.95;25.83;;;;;;;;;;5090804;28;20082;-61
2022/03/22 06:55:41;;;;;;;40.03;24.40;;;;;;;;;;5083987;28;20510;-61
2022/03/22 06:58:08;;;;;;;38.95;25.27;;;;;;;;;;5090052;28;20040;-61
2022/03/22 07:00:34;;;;;;;39.97;24.50;;;;;;;;;;5090240;28;20087;-62
2022/03/22 07:03:01;;;;;;;41.17;25.63;;;;;;;;;;5090091;28;20170;-61
2022/03/22 07:05:28;;;;;;;42.30;24.55;;;;;;;;;;5089968;28;20102;-61
2022/03/22 07:07:54;;;;;;;42.35;26.10;;;;;;;;;;5089897;28;20048;-61
2022/03/22 07:10:20;;;;;;;40.55;25.13;;;;;;;;;;5090274;28;20043;-61
2022/03/22 07:12:56;;;;;;;38.20;24.40;;;;;;;;;;5088485;28;20044;-61
2022/03/22 07:15:33;;;;;;;44.95;26.00;;;8.70;99.90;;;;;;5092120;28;20044;-61
2022/03/22 07:18:03;;;;;;;42.33;24.85;;;8.70;99.90;;;;;;5093706;28;20036;-61
2022/03/22 07:20:30;;;;;;;41.85;25.33;;;;;;;;;;5093979;28;20059;-61
2022/03/22 07:22:56;;;;;;;40.28;24.35;;;;;;;;;;5093521;28;20073;-61
2022/03/22 07:25:22;;;;;;;40.97;24.15;;;;;;;;;;5093531;28;20505;-61
2022/03/22 07:27:49;;;;;;;41.63;25.55;;;;;;;;;;5093560;28;20036;-61
2022/03/22 07:30:16;;;;;;;39.80;24.58;;;;;;;;;;5093116;28;20059;-62
2022/03/22 07:32:43;;;;;;;38.25;23.92;;;;;;;;;;5093190;28;20186;-62
2022/03/22 07:35:10;;;;;;;41.03;25.38;;;9.40;99.90;;;;;;5093195;28;20067;-61
2022/03/22 07:37:36;;;;;;;40.78;25.30;;;9.60;99.90;;;;;;5093628;28;20040;-61
2022/03/22 07:40:08;;;;;;;53.38;26.08;;;9.80;99.90;;;;;;5093316;28;20048;-60
2022/03/22 07:42:34;;;;;;;45.95;23.73;;;;;;;;;;5093858;28;20028;-61
2022/03/22 07:45:03;;;;;;;38.80;23.40;;;10.20;99.90;;;;;;5093246;28;20047;-61
2022/03/22 07:47:30;;;;;;;47.33;24.13;;;;;;;;;;5093680;28;20032;-61
2022/03/22 07:55:28;;;;;;;41.08;23.95;;;;;;;;;;5093643;28;20044;-61
2022/03/22 07:57:54;;;;;;;39.08;23.50;;;;;;;;;;5093361;28;20043;-61
2022/03/22 08:00:20;;;;;;;36.13;23.20;;;;;;;;;;5093150;28;20036;-61
2022/03/22 08:02:52;;;;;;;36.08;22.75;;;;;;;;;;5093228;28;20036;-61
2022/03/22 08:05:18;;;;;;;32.58;22.42;;;;;;;;;;5092609;28;20064;-61
2022/03/22 08:07:44;;;;;;;34.90;21.83;;;;;;;;;;5093117;28;20557;-61
2022/03/22 08:10:10;;;;;;;33.75;21.67;;;;;;;;;;5092891;28;20079;-61
2022/03/22 08:12:36;;;;;;;36.08;21.25;;;;;;;;;;5093018;28;20039;-61
2022/03/22 08:15:03;;;;;;;35.42;21.02;;;11.70;99.90;;;;;;5091647;28;20052;-61
2022/03/22 08:17:29;;;;;;;30.50;20.60;;;;;;;;;;5092781;28;20398;-61
2022/03/22 08:19:55;;;;;;;32.40;19.05;;;;;;;;;;5093329;28;20504;-61
2022/03/22 08:22:22;;;;;;;36.15;20.20;;;;;;;;;;5092566;28;20089;-61
2022/03/22 08:24:48;;;;;;;31.27;20.25;;;;;;;;;;5092981;28;20405;-61
2022/03/22 08:27:14;;;;;;;32.40;19.55;;;;;;;;;;5091414;28;20036;-61
2022/03/22 08:29:40;;;;;;;32.55;19.52;;;;;;;;;;5092767;28;20040;-61
2022/03/22 08:32:06;;;;;;;40.38;20.10;;;;;;;;;;5092443;28;20036;-61
2022/03/22 08:34:32;;;;;;;28.20;18.95;;;;;;;;;;5092693;28;20059;-61
2022/03/22 08:36:58;;;;;;;29.40;19.73;;;;;;;;;;5092559;28;20035;-61
2022/03/22 08:39:24;;;;;;;34.03;20.30;;;;;;;;;;5092549;28;20032;-61
2022/03/22 08:41:52;;;;;;;35.85;20.20;;;;;;;;;;5092519;28;20044;-61
2022/03/22 08:44:20;;;;;;;42.25;20.58;;;;;;;;;;5092141;28;20154;-61
2022/03/22 08:46:46;;;;;;;32.83;20.40;;;;;;;;;;5088512;28;20040;-61
2022/03/22 08:49:12;;;;;;;32.50;20.52;;;;;;;;;;5091878;28;20063;-61
2022/03/22 08:51:38;;;;;;;33.95;19.52;;;;;;;;;;5092006;28;20494;-61
2022/03/22 08:54:06;;;;;;;31.52;21.00;;;;;;;;;;5092042;28;20043;-61
2022/03/22 08:56:32;;;;;;;34.65;19.95;;;;;;;;;;5092083;28;20390;-61
2022/03/22 08:58:59;;;;;;;32.40;19.50;;;;;;;;;;5090401;28;20093;-61
2022/03/22 09:01:27;;;;;;;34.38;21.73;;;;;;;;;;5072650;28;20048;-61
2022/03/22 09:06:39;;;;;;;30.90;19.15;;;;;;;;;;5027940;28;20483;-61
2022/03/22 09:09:06;;;;;;;28.05;20.25;;;;;;;;;;5029057;28;20045;-61
2022/03/22 09:11:34;;;;;;;31.42;21.42;;;;;;;;;;5028961;28;20084;-61
2022/03/22 09:14:01;;;;;;;31.77;21.08;;;;;;;;;;5029211;28;20416;-61
2022/03/22 09:16:28;;;;;;;33.70;19.77;;;;;;;;;;5028886;28;20441;-62
2022/03/22 09:18:55;;;;;;;32.03;21.50;;;;;;;;;;5029087;28;20115;-61
2022/03/22 09:21:21;;;;;;;33.83;20.23;;;;;;;;;;5028909;28;20095;-61
2022/03/22 09:23:48;;;;;;;30.98;20.52;;;;;;;;;;5028707;28;20045;-61
2022/03/22 09:26:14;;;;;;;36.13;20.95;;;;;;;;;;5028808;28;20215;-62
2022/03/22 09:28:40;;;;;;;30.48;20.92;;;;;;;;;;5028600;28;20471;-61
2022/03/22 09:31:07;;;;;;;29.23;20.05;;;;;;;;;;5028883;28;20135;-61
2022/03/22 09:33:33;;;;;;;29.35;20.48;;;;;;;;;;5028403;28;20501;-60
2022/03/22 09:35:59;;;;;;;28.08;20.30;;;;;;;;;;5012248;28;20037;-61
2022/03/22 09:38:25;;;;;;;26.63;19.50;;;;;;;;;;5028377;28;20049;-61
2022/03/22 09:40:55;;;;;;;31.65;20.00;;;;;;;;;;5028858;28;20040;-62
2022/03/22 09:43:24;;;;;;;29.35;21.38;;;;;;;;;;5049960;28;20048;-62
2022/03/22 09:45:52;;;;;;;28.95;19.98;;;16.40;99.90;;;;;;5091376;28;20670;-61
2022/03/22 09:48:18;;;;;;;32.25;20.20;;;;;;;;;;5091458;28;20051;-61
2022/03/22 09:53:29;;;;;;;28.85;19.45;;;;;;;;;;5091131;28;20048;-61
2022/03/22 09:55:55;;;;;;;28.58;19.83;;;;;;;;;;5091330;28;20439;-61
2022/03/22 09:58:21;;;;;;;27.30;20.00;;;;;;;;;;5091174;28;20074;-61
2022/03/22 10:00:47;;;;;;;26.60;19.52;;;;;;;;;;5090998;28;20036;-61
2022/03/22 10:03:20;;;;;;;27.45;19.90;;;17.50;99.90;;;;;;5091219;28;20028;-62
2022/03/22 10:05:58;;;;;;;29.63;20.42;;;17.70;99.90;;;;;;5090612;28;20447;-61
2022/03/22 10:08:24;;;;;;;29.05;20.17;;;;;;;;;;5091219;28;20083;-62
2022/03/22 10:10:54;;;;;;;31.35;20.73;;;;;;;;;;5091124;28;20036;-62
2022/03/22 10:13:20;;;;;;;28.17;18.48;;;;;;;;;;5089938;28;20123;-62
2022/03/22 10:15:46;;;;;;;31.45;19.60;;;;;;;;;;5090603;28;20123;-62
2022/03/22 10:18:13;;;;;;;32.22;18.85;;;;;;;;;;5091078;28;20046;-61
2022/03/22 10:20:41;;;;;;;25.92;18.73;;;18.80;99.90;;;;;;5090512;28;20044;-61
2022/03/22 10:23:09;;;;;;;29.73;19.92;;;;;;;;;;5091158;28;20398;-61
2022/03/22 10:25:38;;;;;;;29.38;20.45;;;;;;;;;;5090778;28;20525;-62
2022/03/22 10:28:05;;;;;;;29.92;19.20;;;;;;;;;;5091127;28;20112;-62
2022/03/22 10:30:32;;;;;;;25.38;19.45;;;;;;;;;;5090955;28;20044;-62
2022/03/22 10:32:58;;;;;;;23.65;18.42;;;;;;;;;;5090621;28;20042;-62
2022/03/22 10:35:24;;;;;;;27.60;19.10;;;;;;;;;;5090953;28;20040;-62
2022/03/22 10:37:53;;;;;;;31.45;19.58;;;19.90;99.90;;;;;;5090625;28;20119;-62
2022/03/22 10:40:26;;;;;;;29.25;19.60;;;20.10;99.90;;;;;;5087801;28;20035;-62
2022/03/22 10:43:00;;;;;;;27.13;18.77;;;20.10;99.90;;;;;;5090257;28;20072;-62
2022/03/22 10:45:27;;;;;;;24.65;17.45;;;;;;;;;;5090103;28;20043;-62
2022/03/22 10:47:53;;;;;;;22.75;17.63;;;;;;;;;;5090001;28;20040;-62
2022/03/22 10:50:20;;;;;;;26.30;18.63;;;;;;;;;;5092380;28;20044;-62
2022/03/22 10:52:54;;;;;;;21.80;17.10;;;;;;;;;;5094001;28;20048;-62
2022/03/22 10:55:21;;;;;;;26.17;17.52;;;21.10;99.60;;;;;;5092462;28;20036;-62
2022/03/22 10:57:58;;;;;;;25.75;18.27;;;;;;;;;;5094233;28;20035;-62
2022/03/22 11:00:25;;;;;;;25.98;18.70;;;21.50;99.10;;;;;;5075910;28;20040;-62
2022/03/22 11:02:55;;;;;;;26.42;17.75;;;21.80;98.20;;;;;;5093795;28;20044;-62
2022/03/22 11:05:22;;;;;;;24.65;18.77;;;;;;;;;;5093984;28;20052;-62
2022/03/22 11:07:49;;;;;;;29.67;18.90;;;;;;;;;;5093959;28;20048;-62
2022/03/22 11:10:16;;;;;;;28.10;19.60;;;;;;;;;;5093895;28;20379;-62
2022/03/22 11:12:43;;;;;;;26.13;19.45;;;;;;;;;;5093820;28;20047;-62
2022/03/22 11:15:09;;;;;;;28.15;19.63;;;22.00;95.90;;;;;;5093880;28;20040;-62
2022/03/22 11:17:36;;;;;;;26.25;19.17;;;;;;;;;;5094220;28;20117;-62
2022/03/22 11:20:06;;;;;;;33.97;18.80;;;22.20;95.90;;;;;;5093486;28;20112;-62
2022/03/22 11:22:32;;;;;;;35.55;19.63;;;;;;;;;;5092395;28;20039;-62
2022/03/22 11:25:12;;;;;;;26.75;18.48;;;23.00;95.90;;;;;;5093481;28;20047;-62
2022/03/22 11:27:39;;;;;;;28.83;18.77;;;;;;;;;;5094156;28;20090;-62
2022/03/22 11:30:07;;;;;;;26.83;18.63;;;23.10;94.40;;;;;;5093826;28;20111;-62
2022/03/22 11:35:24;;;;;;;27.15;18.27;;;;;;;;;;5093572;28;20048;-63
2022/03/22 11:38:00;;;;;;;23.42;17.17;;;23.80;93.10;;;;;;5093493;28;20479;-62
2022/03/22 11:43:13;;;;;;;29.20;18.38;;;24.00;93.00;;;;;;5093487;28;20044;-62
2022/03/22 11:45:49;;;;;;;26.08;18.52;;;;;;;;;;5093811;28;20043;-62
2022/03/22 11:48:16;;;;;;;24.08;17.92;;;;;;;;;;5093387;28;20073;-62
2022/03/22 11:50:46;;;;;;;26.73;18.50;;;;;;;;;;5093920;28;20040;-63
2022/03/22 11:53:19;;;;;;;28.02;18.65;;;24.40;91.00;;;;;;5093305;28;20060;-62
2022/03/22 11:55:49;;;;;;;26.38;18.98;;;;;;;;;;5093377;28;20052;-62
2022/03/22 11:58:15;;;;;;;28.30;18.88;;;;;;;;;;5093208;28;20044;-62
2022/03/22 12:00:51;;;;;;;27.30;19.20;;;24.70;90.10;;;;;;5093128;28;20036;-63
2022/03/22 12:03:21;;;;;;;29.27;19.38;;;24.70;94.70;;;;;;5093091;28;20490;-62
2022/03/22 12:05:47;;;;;;;26.27;18.17;;;;;;;;;;5093129;28;20056;-62
2022/03/22 12:08:14;;;;;;;27.15;18.23;;;;;;;;;;5092867;28;20182;-62
2022/03/22 12:10:40;;;;;;;32.30;19.27;;;;;;;;;;5093340;28;20088;-62
2022/03/22 12:13:06;;;;;;;28.25;19.33;;;;;;;;;;5092533;28;20130;-62
2022/03/22 12:15:33;;;;;;;25.95;17.55;;;;;;;;;;5093223;28;20051;-62
2022/03/22 12:17:58;;;;;;;24.45;18.20;;;23.70;93.60;;;;;;5092987;28;20173;-62
2022/03/22 12:20:25;;;;;;;29.20;18.15;;;23.80;88.20;;;;;;5092763;28;20118;-62
2022/03/22 12:22:58;;;;;;;29.25;16.83;;;23.80;87.40;;;;;;5093010;28;20125;-62
2022/03/22 12:25:25;;;;;;;25.63;17.08;;;;;;;;;;5092854;28;20406;-62
2022/03/22 12:27:51;;;;;;;27.33;18.70;;;;;;;;;;5092719;28;20387;-62
2022/03/22 12:30:17;;;;;;;28.30;17.70;;;;;;;;;;5092250;28;20497;-62
2022/03/22 12:32:43;;;;;;;25.98;17.58;;;;;;;;;;5086674;28;20036;-62
2022/03/22 12:35:11;;;;;;;25.85;16.48;;;23.00;86.80;;;;;;5092313;28;20044;-62
2022/03/22 12:37:38;;;;;;;32.30;17.65;;;;;;;;;;5092339;28;20032;-63
2022/03/22 12:40:04;;;;;;;26.00;17.83;;;;;;;;;;5092052;28;20115;-62
2022/03/22 12:42:31;;;;;;;24.55;17.15;;;;;;;;;;5092184;28;20044;-63
2022/03/22 12:44:57;;;;;;;26.55;17.20;;;;;;;;;;5092272;28;20505;-63
2022/03/22 12:47:23;;;;;;;28.05;18.00;;;;;;;;;;5092050;28;20039;-62
2022/03/22 12:49:49;;;;;;;25.65;17.40;;;23.10;93.70;;;;;;5086581;28;20375;-62
2022/03/22 12:52:14;;;;;;;25.20;18.20;;;23.90;91.60;;;;;;5091856;28;20047;-63
2022/03/22 12:54:41;;;;;;;28.17;19.10;;;;;;;;;;5091823;28;20036;-62
2022/03/22 12:57:16;;;;;;;25.52;17.90;;;24.60;87.60;;;;;;5091939;28;20042;-62
2022/03/22 12:59:43;;;;;;;24.77;17.35;;;;;;;;;;5092132;28;20039;-62
2022/03/22 13:02:09;;;;;;;26.42;18.27;;;24.50;92.70;;;;;;5090417;28;20110;-62
2022/03/22 13:04:38;;;;;;;24.20;17.20;;;25.20;86.10;;;;;;5091607;28;20626;-62
2022/03/22 13:07:05;;;;;;;26.13;18.35;;;;;;;;;;5091397;28;20048;-63
2022/03/22 13:12:17;;;;;;;26.05;17.33;;;;;;;;;;5091257;28;20044;-62
2022/03/22 13:15:04;;;;;;;26.98;17.02;;;26.30;83.80;;;;;;5091872;28;20036;-62
2022/03/22 13:17:45;;;;;;;24.90;16.88;;;;;;;;;;5090687;28;20048;-63
2022/03/22 13:20:17;;;;;;;25.52;16.75;;;;;;;;;;5092138;28;20036;-62
2022/03/22 13:23:06;;;;;;;26.15;16.90;;;27.30;82.50;;;;;;5092099;28;20036;-63
2022/03/22 13:25:34;;;;;;;24.50;16.48;;;27.30;88.40;;;;;;5091900;28;20066;-62
2022/03/22 13:28:07;;;;;;;25.83;17.15;;;27.40;79.90;;;;;;5091645;28;20047;-62
2022/03/22 13:30:34;;;;;;;26.17;17.45;;;27.10;90.00;;;;;;5091645;28;20044;-63
2022/03/22 13:33:07;;;;;;;22.48;15.98;;;;;;;;;;5091832;28;20039;-63
2022/03/22 13:35:33;;;;;;;24.40;16.23;;;26.80;88.60;;;;;;5091289;28;20044;-63
2022/03/22 13:38:01;;;;;;;25.35;16.15;;;;;;;;;;5091543;28;20603;-63
2022/03/22 13:40:34;;;;;;;22.58;16.58;;;;;;;;;;5091250;28;20106;-63
2022/03/22 13:43:10;;;;;;;23.80;16.38;;;27.50;78.20;;;;;;5091611;28;20142;-63
2022/03/22 13:45:37;;;;;;;25.05;16.50;;;27.60;83.50;;;;;;5091307;28;20047;-62
2022/03/22 13:48:13;;;;;;;25.50;16.45;;;;;;;;;;5091484;28;20036;-62
2022/03/22 13:50:41;;;;;;;20.83;15.18;;;27.60;77.60;;;;;;5091144;28;20090;-63
2022/03/22 13:53:13;;;;;;;18.95;14.15;;;28.00;79.20;;;;;;5091088;28;20051;-63
2022/03/22 13:55:42;;;;;;;21.52;14.25;;;;;;;;;;5090824;28;20043;-63
2022/03/22 13:58:17;;;;;;;19.92;13.77;;;28.30;78.50;;;;;;5091226;28;20502;-63
2022/03/22 14:00:48;;;;;;;22.40;14.88;;;28.00;77.00;;;;;;5091122;28;20496;-63
2022/03/22 14:03:15;;;;;;;26.30;16.73;;;;;;;;;;5091320;28;20040;-63
2022/03/22 14:05:42;;;;;;;26.70;16.90;;;;;;;;;;5090495;28;21954;-63
2022/03/22 14:08:09;;;;;;;23.65;16.63;;;28.30;85.10;;;;;;5090430;28;20043;-63
2022/03/22 14:10:35;;;;;;;20.77;15.50;;;28.90;85.70;;;;;;5090094;28;20066;-63
2022/03/22 14:13:02;;;;;;;20.55;15.02;;;;;;;;;;5090282;28;20089;-63
2022/03/22 14:15:29;;;;;;;27.00;16.00;;;;;;;;;;5089870;28;20047;-63
2022/03/22 14:17:54;;;;;;;24.58;14.85;;;29.20;82.70;;;;;;5090072;28;20836;-63
2022/03/22 14:20:21;;;;;;;18.73;13.85;;;;;;;;;;5089964;28;20071;-63
2022/03/22 14:22:48;;;;;;;14.75;11.50;;;;;;;;;;5086535;28;20032;-63
2022/03/22 14:25:14;;;;;;;16.38;10.40;;;;;;;;;;5088167;28;20067;-63
2022/03/22 14:27:41;;;;;;;15.10;9.63;;;;;;;;;;5089716;28;20112;-63
2022/03/22 14:30:14;;;;;;;20.63;14.85;;;;;;;;;;5089465;28;20043;-63
2022/03/22 14:32:40;;;;;;;20.15;14.90;;;;;;;;;;5089245;28;20055;-63
2022/03/22 14:37:50;;;;;;;22.90;15.00;;;;;;;;;;5089358;28;20048;-63
2022/03/22 14:40:16;;;;;;;22.63;14.40;;;28.00;81.50;;;;;;5089373;28;20123;-63
2022/03/22 14:42:43;;;;;;;24.63;15.35;;;27.80;76.20;;;;;;5089479;28;20444;-63
2022/03/22 14:45:11;;;;;;;21.42;15.35;;;26.70;82.50;;;;;;5089303;28;20048;-63
2022/03/22 14:47:37;;;;;;;28.33;16.45;;;26.10;83.10;;;;;;5087920;28;20173;-62